Terminal Aerodrome Forecast
Issued by NWS

Home | Current Version | Previous Version | Text Only | Print | Product List | Glossary On
Versions: 1 2 3 4 5 6 7 8 9 10 11 12 13 14 15 16 17 18 19
000
FTUS42 KMLB 030532
TAFTIX
TAF
KTIX 030532Z 0306/0406 15005KT 4SM TSRA BR SCT020CB BKN050 OVC100
      TEMPO 0306/0307 2SM +TSRA BR BKN020CB
     FM030700 16005KT P6SM VCTS FEW025CB SCT120 BKN250
     FM030800 16005KT P6SM FEW025 SCT120 BKN250
      TEMPO 0309/0312 BKN025
     FM031400 22009KT P6SM SCT030
     FM032100 20007KT P6SM VCTS BKN035CB
      AMD NOT SKED TIL 031100=

USA.gov is the U.S. government's official web portal to all federal, state and local government web resources and services.